EA1JL-13 Weather Reports


time (UTC)temp
F
wind
direction
speed
knots
gust
knots
rain 1hr
in
rain 24hr
in
rain mn
in
humidity
%
barometer
mb
20221203051517 39 111 0.0 0.0 0.00 0.01 0.00 87 1010.5
20221203044518 40 59 0.0 0.0 0.00 0.01 0.00 89 1010.4
20221203041517 40 81 0.0 0.0 0.00 0.01 0.00 87 1010.2
20221203040017 40 69 0.0 0.0 0.00 0.01 0.00 88 1010.2
20221203034519 40 82 0.0 0.0 0.00 0.01 0.00 87 1010.2
20221203031518 41 54 0.0 0.0 0.00 0.01 0.00 87 1010.1
20221203030017 40 28 0.0 0.0 0.00 0.01 0.00 90 1010.2
20221203024517 41 76 0.0 0.0 0.00 0.01 0.00 88 1010.2
20221203023017 40 69 0.0 0.0 0.00 0.01 0.00 88 1010.2
20221203021517 41 91 0.0 0.0 0.00 0.01 0.00 86 1010.2
20221203020017 42 68 0.0 0.0 0.00 0.01 0.00 88 1010.0
20221203013017 40 106 0.0 0.0 0.00 0.01 0.00 90 1010.0
20221203010016 39 83 0.0 0.0 0.00 0.01 0.00 91 1010.3
20221203004517 40 72 0.0 0.0 0.00 0.01 0.00 90 1010.2
20221203003017 41 37 0.0 0.0 0.00 0.01 0.00 91 1010.2
20221203001517 40 69 0.0 0.0 0.00 0.01 0.00 91 1010.2
20221203000017 40 116 0.0 0.0 0.00 0.01 0.00 88 1010.3
20221202234517 42 46 0.0 0.0 0.01 0.01 0.01 89 1010.4
20221202233018 43 73 0.0 0.0 0.00 0.00 0.00 89 1010.5
20221202231517 42 39 0.9 5.2 0.00 0.00 0.00 94 1010.6
20221202224517 41 135 0.9 0.9 0.00 0.00 0.00 94 1010.6
20221202221517 41 23 0.0 1.7 0.00 0.00 0.00 94 1010.6
20221202220017 41 76 0.9 1.7 0.00 0.00 0.00 94 1010.6
20221202214516 40 144 0.0 1.7 0.00 0.00 0.00 93 1010.7
20221202213018 41 91 0.9 0.9 0.00 0.00 0.00 94 1010.6
20221202211517 41 141 0.0 0.0 0.00 0.00 0.00 94 1010.7
20221202210016 41 155 0.0 0.0 0.00 0.00 0.00 93 1010.7
20221202204516 42 155 0.0 0.0 0.00 0.00 0.00 93 1010.7
20221202203018 42 145 0.0 0.0 0.00 0.00 0.00 92 1010.6
20221202201516 43 145 0.0 0.0 0.00 0.00 0.00 93 1010.5
20221202194517 44 32 0.0 0.0 0.00 0.00 0.00 92 1010.4
20221202193017 44 36 0.0 0.0 0.00 0.00 0.00 92 1010.5
20221202191516 45 39 0.0 0.0 0.00 0.00 0.00 92 1010.5
20221202190017 45 39 0.0 0.0 0.00 0.00 0.00 91 1010.4
20221202184516 45 153 0.0 0.0 0.00 0.00 0.00 90 1010.5
20221202183017 46 107 0.0 24.3 0.00 0.00 0.00 89 1010.6
20221202181517 47 107 0.0 0.9 0.00 0.00 0.00 89 1010.6
20221202180016 48 150 0.0 0.0 0.00 0.00 0.00 87 1010.6
20221202174516 49 150 0.0 0.0 0.00 0.00 0.00 85 1010.7
20221202173017 51 150 0.9 0.9 0.00 0.00 0.00 81 1010.6
20221202171516 52 207 0.0 0.9 0.00 0.00 0.00 77 1010.6
20221202170017 56 159 0.0 0.9 0.00 0.00 0.00 70 1010.5
20221202164517 58 259 0.0 0.0 0.00 0.00 0.00 70 1010.6
20221202163016 58 280 0.9 2.6 0.00 0.00 0.00 72 1010.5
20221202161516 57 266 0.9 2.6 0.00 0.00 0.00 69 1010.4
20221202160017 59 281 0.9 4.3 0.00 0.00 0.00 68 1010.3
20221202153018 59 293 1.7 4.3 0.00 0.00 0.00 63 1010.3
20221202150016 59 256 3.5 5.2 0.00 0.00 0.00 66 1010.2
20221202144516 60 19 1.7 2.6 0.00 0.00 0.00 61 1010.2
20221202143017 60 309 0.9 2.6 0.00 0.00 0.00 63 1010.3
20221202141516 59 12 2.6 4.3 0.00 0.00 0.00 63 1010.4
20221202140016 59 327 1.7 2.6 0.00 0.00 0.00 64 1010.6
20221202134516 58 306 0.9 4.3 0.00 0.00 0.00 66 1010.8
20221202133016 58 325 0.9 1.7 0.00 0.00 0.00 66 1010.9
20221202131516 57 266 0.9 1.7 0.00 0.00 0.00 68 1011.1
20221202130018 56 246 0.9 1.7 0.00 0.00 0.00 70 1011.3
20221202124517 54 238 0.9 1.7 0.00 0.00 0.00 71 1011.5
20221202123017 54 234 1.7 1.7 0.00 0.00 0.00 71 1011.8
20221202121515 54 239 0.9 2.6 0.00 0.00 0.00 71 1012.1
20221202120016 54 243 0.9 1.7 0.00 0.00 0.00 71 1012.2
20221202114516 52 177 2.6 2.6 0.00 0.00 0.00 74 1012.5
20221202113016 51 224 2.6 2.6 0.00 0.00 0.00 76 1012.8
20221202111516 51 247 0.9 1.7 0.00 0.00 0.00 77 1013.0
20221202110016 49 157 0.9 1.7 0.00 0.00 0.00 79 1013.2
20221202104515 47 154 1.7 1.7 0.00 0.00 0.00 82 1013.4
20221202103017 47 199 0.9 1.7 0.00 0.00 0.00 85 1013.5
20221202101516 45 185 0.0 1.7 0.00 0.00 0.00 88 1013.5
20221202100016 45 193 0.9 1.7 0.00 0.00 0.00 90 1013.4
20221202094515 44 224 0.0 0.0 0.00 0.00 0.00 92 1013.5
20221202093016 42 239 0.0 0.9 0.00 0.00 0.00 93 1013.5
20221202091515 41 219 0.0 1.7 0.00 0.00 0.00 93 1013.4
20221202090017 40 215 0.0 0.0 0.00 0.00 0.00 94 1013.3
20221202084516 39 162 0.0 6.1 0.00 0.00 0.00 94 1013.3
20221202083016 38 148 0.0 0.9 0.00 0.00 0.00 94 1013.3
20221202081516 38 110 0.0 0.9 0.00 0.00 0.00 95 1013.3
20221202080017 37 110 0.0 0.0 0.00 0.00 0.00 94 1013.2
20221202074517 38 110 0.9 1.7 0.00 0.00 0.00 94 1013.2
20221202073015 38 78 0.9 0.9 0.00 0.00 0.00 94 1013.2
20221202071516 37 111 0.0 1.7 0.00 0.00 0.00 94 1013.3
20221202070016 38 1 0.0 0.9 0.00 0.01 0.00 94 1013.2
20221202064515 38 23 0.0 0.9 0.00 0.01 0.00 94 1013.2
20221202061516 38 269 0.0 0.9 0.00 0.01 0.00 94 1013.4
20221202054517 38 252 0.0 0.0 0.00 0.01 0.00 93 1013.5
20221202053015 39 251 0.0 0.9 0.00 0.01 0.00 93 1013.5